Home > Products > Valid Products > TAF

000
FTUS42 KCAE 181100
TAFCAE
TAF
KCAE 181129Z 1812/1912 04010G16KT P6SM SCT030 OVC100
      TEMPO 1817/1820 BKN030
     FM182000 04012G18KT 5SM -RA OVC020
     FM190200 04014G20KT 3SM RA OVC009=



000
FTUS42 KCAE 181100
TAFOGB
TAF
KOGB 181129Z 1812/1912 04010G16KT P6SM SCT030 OVC100
      TEMPO 1817/1820 BKN030
     FM182000 04012G18KT 5SM -RA OVC020
     FM190100 04014G20KT 3SM RA OVC009=



000
FTUS42 KCAE 181100
TAFDNL
TAF
KDNL 181129Z 1812/1912 04010G16KT P6SM SCT030 OVC100
      TEMPO 1816/1818 BKN030
     FM181800 04012G18KT 5SM -RA OVC020
     FM190000 04014G20KT 3SM RA OVC009=



000
FTUS42 KCAE 181100
TAFCUB
TAF
KCUB 181129Z 1812/1912 04008G14KT P6SM SCT030 OVC100
      TEMPO 1817/1820 BKN030
     FM182000 04010G16KT 5SM -RA OVC020
     FM190200 04012G18KT 3SM RA OVC009=



000
FTUS42 KCAE 181100
TAFAGS
TAF
KAGS 181129Z 1812/1912 04010G16KT P6SM SCT030 OVC100
      TEMPO 1816/1818 BKN030
     FM181800 04012G18KT 5SM -RA OVC020
     FM190000 04014G20KT 3SM RA OVC009=



000
FTUS42 KCAE 180900 AAB
TAFAGS
TAF AMD
KAGS 180942Z 1810/1906 06005KT P6SM SCT050 OVC150
     FM181200 04010G16KT P6SM BKN025 OVC100
     FM181800 04012G18KT 5SM -RA OVC020
     FM190000 04014G20KT 3SM RA OVC009=



000
FTUS42 KCAE 180900 AAB
TAFCUB
TAF AMD
KCUB 180942Z 1810/1906 05005KT P6SM SCT050 OVC150
     FM181100 04008G14KT P6SM BKN030 OVC100
     FM182000 04010G16KT 5SM -RA OVC020
     FM190200 04012G18KT 3SM RA OVC009=



000
FTUS42 KCAE 180900 AAB
TAFDNL
TAF AMD
KDNL 180942Z 1810/1906 05009KT P6SM SCT050 OVC150
     FM181200 04010G16KT P6SM BKN025 OVC100
     FM181800 04012G18KT 5SM -RA OVC020
     FM190000 04014G20KT 3SM RA OVC009=



000
FTUS42 KCAE 180900 AAB
TAFCAE
TAF AMD
KCAE 180942Z 1810/1906 05006KT P6SM SCT050 OVC150
     FM181100 04010G16KT P6SM BKN030 OVC100
     FM182000 04012G18KT 5SM -RA OVC020
     FM190200 04014G20KT 3SM RA OVC009=



000
FTUS42 KCAE 180900 AAB
TAFOGB
TAF AMD
KOGB 180942Z 1810/1906 05005KT P6SM SCT050 OVC150
     FM181200 04010G16KT P6SM BKN025 OVC100
     FM181900 04012G18KT 5SM -RA OVC020
     FM190100 04014G20KT 3SM RA OVC009=



000
FTUS42 KCAE 180900 AAA
TAFCAE
TAF AMD
KCAE 180931Z 1810/1906 05006KT P6SM SCT050 OVC150
     FM181100 04010G16KT P6SM BKN030 OVC100
     FM182200 04012G18KT 5SM -RA OVC020
     FM190300 04014G20KT 3SM RA OVC009=



000
FTUS42 KCAE 180900 AAA
TAFOGB
TAF AMD
KOGB 180931Z 1810/1906 05005KT P6SM SCT050 OVC150
     FM181200 04010G16KT P6SM BKN025 OVC100
     FM182200 04012G18KT 5SM -RA OVC020
     FM190300 04014G20KT 3SM RA OVC009=



000
FTUS42 KCAE 180900 AAA
TAFCUB
TAF AMD
KCUB 180931Z 1810/1906 05005KT P6SM SCT050 OVC150
     FM181100 04008G14KT P6SM BKN030 OVC100
     FM182200 04010G16KT 5SM -RA OVC020
     FM190300 04012G18KT 3SM RA OVC009=



000
FTUS42 KCAE 180900 AAA
TAFDNL
TAF AMD
KDNL 180931Z 1810/1906 05009KT P6SM SCT050 OVC150
     FM181200 04010G16KT P6SM BKN025 OVC100
     FM182100 04012G18KT 5SM -RA OVC020
     FM190200 04014G20KT 3SM RA OVC009=



000
FTUS42 KCAE 180900 AAA
TAFAGS
TAF AMD
KAGS 180931Z 1810/1906 06005KT P6SM SCT050 OVC150
     FM181200 04010G16KT P6SM BKN025 OVC100
     FM182100 04012G18KT 5SM -RA OVC020
     FM190200 04014G20KT 3SM RA OVC009=



000
FTUS42 KCAE 180500
TAFCAE
TAF
KCAE 180520Z 1806/1906 05006KT P6SM SCT050 OVC250
     FM181300 04010G16KT P6SM BKN025 OVC050
     FM182200 04012G18KT 5SM -RA OVC020
     FM190300 04014G20KT 3SM RA OVC009=



000
FTUS42 KCAE 180500
TAFDNL
TAF
KDNL 180520Z 1806/1906 05008KT P6SM SCT050 OVC250
     FM181100 04010G16KT P6SM BKN025 OVC050
     FM182100 04012G18KT 5SM -RA OVC020
     FM190200 04014G20KT 3SM RA OVC009=



000
FTUS42 KCAE 180500
TAFOGB
TAF
KOGB 180520Z 1806/1906 05005KT P6SM SCT050 OVC250
     FM181000 04010G16KT P6SM BKN025 OVC050
     FM182200 04012G18KT 5SM -RA OVC020
     FM190300 04014G20KT 3SM RA OVC009=



000
FTUS42 KCAE 180500
TAFAGS
TAF
KAGS 180520Z 1806/1906 05005KT P6SM SCT050 OVC250
     FM181100 04010G16KT P6SM BKN025 OVC050
     FM182100 04012G18KT 5SM -RA OVC020
     FM190200 04014G20KT 3SM RA OVC009=



000
FTUS42 KCAE 180500
TAFCUB
TAF
KCUB 180520Z 1806/1906 05005KT P6SM SCT050 OVC250
     FM181300 04008G14KT P6SM BKN025 OVC050
     FM182200 04010G16KT 5SM -RA OVC020
     FM190300 04012G18KT 3SM RA OVC009=



000
FTUS42 KCAE 180200 AAA
TAFCAE
TAF AMD
KCAE 180221Z 1802/1824 VRB05KT P6SM BKN150
     FM180600 04007KT P6SM SCT025 BKN040 BKN150
     FM181000 05007KT P6SM BKN025 OVC120
     FM181600 03009G15KT P6SM BKN035 OVC060
     FM181900 04010G16KT P6SM VCSH BKN025 OVC040
     FM182200 04009G15KT 5SM -SHRA BR BKN020 OVC040=



000
FTUS42 KCAE 180200 AAA
TAFAGS
TAF AMD
KAGS 180221Z 1802/1824 VRB05KT P6SM SCT060 BKN150
     FM180500 05006KT P6SM SCT025 BKN040 OVC150
     FM181100 03009KT P6SM BKN025 OVC120
     FM181500 04010G16KT P6SM BKN035 OVC060
     FM181800 06010G16KT P6SM VCSH BKN025 OVC040
     FM182100 04009KT 5SM -SHRA BR BKN020 OVC040=



000
FTUS42 KCAE 180200 AAA
TAFOGB
TAF AMD
KOGB 180221Z 1802/1824 VRB05KT P6SM BKN150
     FM180500 04007KT P6SM SCT025 BKN040 BKN150
     FM180900 04009KT P6SM BKN025 OVC120
     FM181500 05010G16KT P6SM SCT025 BKN035 OVC060
     FM181800 06010G16KT P6SM VCSH BKN025 OVC040
     FM182100 04009KT 5SM -SHRA BR BKN020 OVC040=



000
FTUS42 KCAE 180200 AAA
TAFDNL
TAF AMD
KDNL 180221Z 1802/1824 07007KT P6SM SCT050 BKN150
     FM180500 04005KT P6SM SCT025 BKN040 OVC150
     FM181100 04009KT P6SM BKN025 OVC120
     FM181400 04010G16KT P6SM BKN035 OVC060
     FM181800 06010G16KT P6SM VCSH BKN025 OVC040
     FM182100 04009KT 5SM -SHRA BR BKN020 OVC040=



000
FTUS42 KCAE 180200 AAA
TAFCUB
TAF AMD
KCUB 180221Z 1802/1824 VRB04KT P6SM BKN150
     FM180600 04006KT P6SM SCT025 BKN040 BKN150
     FM181000 05007KT P6SM BKN025 OVC120
     FM181600 03008G14KT P6SM BKN035 OVC060
     FM181900 04010G16KT P6SM VCSH BKN025 OVC040
     FM182200 04009G14KT 5SM -SHRA BR BKN020 OVC040=



000
FTUS42 KCAE 172300
TAFAGS
TAF
KAGS 172338Z 1800/1824 06008KT P6SM SCT060 BKN150
     FM180500 VRB05KT P6SM SCT025 BKN040 BKN150
     FM181100 03009KT P6SM BKN025 OVC150
     FM181500 04010G16KT P6SM BKN035 OVC060
     FM181800 06010G16KT P6SM VCSH BKN025 OVC040
     FM182100 04009KT 5SM -SHRA BR BKN020 OVC040=



000
FTUS42 KCAE 172300
TAFCUB
TAF
KCUB 172338Z 1800/1824 06006KT P6SM SCT150
     FM180600 VRB04KT P6SM SCT025 BKN040 BKN150
     FM181000 05007KT P6SM BKN025 OVC150
     FM181600 03008G14KT P6SM BKN035 OVC060
     FM182200 04009G14KT 5SM -SHRA BR BKN020 OVC040=



000
FTUS42 KCAE 172300
TAFOGB
TAF
KOGB 172338Z 1800/1824 06007KT P6SM SCT150
     FM180500 VRB05KT P6SM SCT025 BKN040 BKN150
     FM180900 04009KT P6SM BKN025 OVC150
     FM181500 05010G16KT P6SM SCT025 BKN035 OVC060
     FM181800 06010G16KT P6SM VCSH BKN025 OVC040
     FM182100 04009KT 5SM -SHRA BR BKN020 OVC040=



000
FTUS42 KCAE 172300
TAFCAE
TAF
KCAE 172338Z 1800/1824 07008KT P6SM SCT150
     FM180600 VRB05KT P6SM SCT025 BKN040 BKN150
     FM181000 05007KT P6SM BKN025 OVC150
     FM181600 03009G15KT P6SM BKN035 OVC060
     FM182200 04009G15KT 5SM -SHRA BR BKN020 OVC040=



000
FTUS42 KCAE 172300
TAFDNL
TAF
KDNL 172338Z 1800/1824 05008KT P6SM SCT050 BKN150
     FM180500 06005KT P6SM SCT025 BKN040
     FM181100 04009KT P6SM BKN025 OVC150
     FM181400 04010G16KT P6SM BKN035 OVC060
     FM181800 06010G16KT P6SM VCSH BKN025 OVC040
     FM182100 04009KT 5SM -SHRA BR BKN020 OVC040=



000
FTUS42 KCAE 172100 AAA
TAFOGB
TAF AMD
KOGB 172106Z 1721/1818 05008KT P6SM SCT200
     FM180500 06006KT P6SM SCT025 BKN040 BKN150
     FM180900 04010G17KT P6SM BKN025 OVC150
     FM181600 04010G16KT P6SM BKN035 OVC060=



000
FTUS42 KCAE 172100 AAA
TAFCUB
TAF AMD
KCUB 172106Z 1721/1818 06006KT P6SM SCT200
     FM180600 VRB04KT P6SM SCT025 BKN040 BKN150
     FM181000 03007KT P6SM BKN025 OVC150
     FM181600 03008G14KT P6SM BKN035 OVC060=



000
FTUS42 KCAE 172100 AAA
TAFAGS
TAF AMD
KAGS 172106Z 1721/1818 06008KT P6SM SCT050 BKN200
     FM180500 VRB05KT P6SM SCT025 BKN040 BKN150
     FM181100 03009KT P6SM BKN025 OVC150
     FM181500 04010G16KT P6SM BKN035 OVC060=



000
FTUS42 KCAE 172100 AAA
TAFDNL
TAF AMD
KDNL 172106Z 1721/1818 05008KT P6SM SCT050 BKN200
     FM180500 06005KT P6SM SCT025 BKN040
     FM181100 04009KT P6SM BKN025 OVC150
     FM181400 04010G16KT P6SM BKN035 OVC060=



000
FTUS42 KCAE 172100 AAA
TAFCAE
TAF AMD
KCAE 172106Z 1721/1818 06008KT P6SM SCT200
     FM180600 VRB05KT P6SM SCT025 BKN040 BKN150
     FM181000 03007KT P6SM BKN025 OVC150
     FM181600 03009G15KT P6SM BKN035 OVC060=



000
FTUS42 KCAE 171700
TAFOGB
TAF
KOGB 171726Z 1718/1818 05012KT P6SM SCT040 SCT250
     FM180400 06005KT P6SM SCT025 BKN040
     FM181000 04010G17KT P6SM BKN025=



000
FTUS42 KCAE 171700
TAFCUB
TAF
KCUB 171726Z 1718/1818 06007KT P6SM SCT040 SCT250
     FM180600 06004KT P6SM SCT025 BKN040
     FM181200 04008G14KT P6SM BKN025=



000
FTUS42 KCAE 171700
TAFAGS
TAF
KAGS 171726Z 1718/1818 06012KT P6SM SCT040 SCT250
     FM180500 06005KT P6SM SCT025 BKN040
     FM181100 03009G15KT P6SM BKN025=



000
FTUS42 KCAE 171700
TAFCAE
TAF
KCAE 171726Z 1718/1818 06010KT P6SM SCT040 SCT250
     FM180600 06005KT P6SM SCT025 BKN040
     FM181200 03010G16KT P6SM BKN025=



000
FTUS42 KCAE 171700
TAFDNL
TAF
KDNL 171726Z 1718/1818 05012KT P6SM SCT040 SCT250
     FM180600 06005KT P6SM SCT025 BKN040
     FM181100 03010G16KT P6SM BKN025=



000
FTUS42 KCAE 171100
TAFOGB
TAF
KOGB 171130Z 1712/1812 04008KT P6SM SCT040 BKN250
     FM171400 06012KT P6SM SCT040 BKN250
     FM180600 06005KT P6SM BKN025=



000
FTUS42 KCAE 171100
TAFDNL
TAF
KDNL 171130Z 1712/1812 05007KT P6SM SCT040 BKN250
     FM171400 06012KT P6SM SCT040 BKN250
     FM180600 06005KT P6SM BKN025=



000
FTUS42 KCAE 171100
TAFCUB
TAF
KCUB 171130Z 1712/1812 VRB04KT P6SM SCT250
     FM171400 06007KT P6SM SCT040 BKN250
     FM180600 06004KT P6SM BKN025=



000
FTUS42 KCAE 171100
TAFCAE
TAF
KCAE 171130Z 1712/1812 05007KT P6SM SCT250
     FM171400 06010KT P6SM SCT040 BKN250
     FM180600 06005KT P6SM BKN025=



000
FTUS42 KCAE 171100
TAFAGS
TAF
KAGS 171130Z 1712/1812 03006KT P6SM SCT040 BKN250
     FM171400 06012KT P6SM SCT040 BKN250
     FM180600 06005KT P6SM BKN025=



000
FTUS42 KCAE 170900 AAA
TAFAGS
TAF AMD
KAGS 170945Z 1710/1806 03004KT P6SM SCT040 BKN250
     FM171400 07012KT P6SM SCT040 BKN250
     FM180000 07005KT P6SM BKN035=



000
FTUS42 KCAE 170900 AAA
TAFCAE
TAF AMD
KCAE 170945Z 1710/1806 05005KT P6SM SCT250
     FM171400 07010KT P6SM SCT040 BKN250
     FM180000 07005KT P6SM BKN035=



000
FTUS42 KCAE 170900 AAA
TAFDNL
TAF AMD
KDNL 170945Z 1710/1806 05005KT P6SM SCT040 BKN250
     FM171400 07012KT P6SM SCT040 BKN250
     FM180000 07005KT P6SM BKN035=



000
FTUS42 KCAE 170900 AAA
TAFCUB
TAF AMD
KCUB 170945Z 1710/1806 VRB03KT P6SM SCT250
     FM171400 07008KT P6SM SCT040 BKN250
     FM180000 07004KT P6SM BKN035=



000
FTUS42 KCAE 170900 AAA
TAFOGB
TAF AMD
KOGB 170945Z 1710/1806 04005KT P6SM SCT040 BKN250
     FM171200 07011KT P6SM SCT040 BKN250
     FM180000 07005KT P6SM BKN035=



000
FTUS42 KCAE 170500
TAFCUB
TAF
KCUB 170529Z 1706/1806 VRB03KT P6SM SKC
     FM171400 07008KT P6SM SKC
     FM180000 07004KT P6SM SCT035=



000
FTUS42 KCAE 170500
TAFAGS
TAF
KAGS 170529Z 1706/1806 08004KT P6SM SKC
     FM171400 07012KT P6SM SKC
     FM180000 07005KT P6SM SCT035=



000
FTUS42 KCAE 170500
TAFCAE
TAF
KCAE 170529Z 1706/1806 07005KT P6SM SKC
     FM171400 07010KT P6SM SKC
     FM180000 07005KT P6SM SCT035=



000
FTUS42 KCAE 170500
TAFDNL
TAF
KDNL 170529Z 1706/1806 08005KT P6SM SKC
     FM171400 07012KT P6SM SKC
     FM180000 07005KT P6SM SCT035=



000
FTUS42 KCAE 170500
TAFOGB
TAF
KOGB 170529Z 1706/1806 06005KT P6SM SKC
     FM171200 07011KT P6SM SKC
     FM180000 07005KT P6SM SCT035=



000
FTUS42 KCAE 170200 AAA
TAFOGB
TAF AMD
KOGB 170225Z 1702/1724 06007KT P6SM SKC
     FM170700 03008KT P6SM FEW250
     FM171200 07011KT P6SM SCT040=



000
FTUS42 KCAE 170200 AAA
TAFCUB
TAF AMD
KCUB 170225Z 1702/1724 VRB05KT P6SM SKC
     FM170800 04006KT P6SM FEW250
     FM171400 07008KT P6SM SCT040=



000
FTUS42 KCAE 170200 AAA
TAFDNL
TAF AMD
KDNL 170225Z 1702/1724 08007KT P6SM SKC
     FM170800 02008KT P6SM FEW250
     FM171400 07013KT P6SM SCT040=



000
FTUS42 KCAE 170200 AAA
TAFAGS
TAF AMD
KAGS 170225Z 1702/1724 08005KT P6SM SKC
     FM170800 02008KT P6SM FEW250
     FM171400 07013KT P6SM SCT040=



000
FTUS42 KCAE 170200 AAA
TAFCAE
TAF AMD
KCAE 170225Z 1702/1724 08007KT P6SM SKC
     FM170800 02008KT P6SM FEW250
     FM171400 07010KT P6SM SCT040=



000
FTUS42 KCAE 162300
TAFDNL
TAF
KDNL 162323Z 1700/1724 09007KT P6SM SKC
     FM170800 02008KT P6SM FEW250
     FM171400 07013KT P6SM SCT040=



000
FTUS42 KCAE 162300
TAFCAE
TAF
KCAE 162323Z 1700/1724 10008KT P6SM SKC
     FM170800 02008KT P6SM FEW250
     FM171400 07010KT P6SM SCT040=



000
FTUS42 KCAE 162300
TAFCUB
TAF
KCUB 162323Z 1700/1724 VRB05KT P6SM SKC
     FM170800 04006KT P6SM FEW250
     FM171400 07008KT P6SM SCT040=



000
FTUS42 KCAE 162300
TAFOGB
TAF
KOGB 162323Z 1700/1724 07007KT P6SM SKC
     FM170700 03008KT P6SM FEW250
     FM171200 07011KT P6SM SCT040=



000
FTUS42 KCAE 162300
TAFAGS
TAF
KAGS 162323Z 1700/1724 11007KT P6SM SKC
     FM170800 02008KT P6SM FEW250
     FM171400 07013KT P6SM SCT040=



000
FTUS42 KCAE 162100 AAA
TAFCAE
TAF AMD
KCAE 162100Z 1621/1718 07010KT P6SM SKC
     FM170800 02007KT P6SM FEW040
     FM171400 07010KT P6SM SCT040=



000
FTUS42 KCAE 162100 AAA
TAFDNL
TAF AMD
KDNL 162100Z 1621/1718 07011KT P6SM SKC
     FM170800 02008KT P6SM FEW040
     FM171400 07011KT P6SM SCT040=



000
FTUS42 KCAE 162100 AAA
TAFCUB
TAF AMD
KCUB 162100Z 1621/1718 07008KT P6SM SKC
     FM170800 02007KT P6SM FEW040
     FM171400 07010KT P6SM SCT040=



000
FTUS42 KCAE 162100 AAA
TAFOGB
TAF AMD
KOGB 162100Z 1621/1718 05008KT P6SM SKC
     FM170800 02008KT P6SM FEW035
     FM171400 07011KT P6SM SCT040=



000
FTUS42 KCAE 162100 AAA
TAFAGS
TAF AMD
KAGS 162100Z 1621/1718 08010KT P6SM SKC
     FM170800 02008KT P6SM FEW040
     FM171400 07011KT P6SM SCT040=



000
FTUS42 KCAE 161700
TAFDNL
TAF
KDNL 161720Z 1618/1718 07010KT P6SM SKC
     FM170800 02008KT P6SM FEW040
     FM171400 07011KT P6SM SCT040=



000
FTUS42 KCAE 161700
TAFOGB
TAF
KOGB 161720Z 1618/1718 06012KT P6SM SKC
     FM170800 02008KT P6SM FEW035
     FM171400 07011KT P6SM SCT040=



000
FTUS42 KCAE 161700
TAFAGS
TAF
KAGS 161720Z 1618/1718 07010KT P6SM SKC
     FM170800 02008KT P6SM FEW040
     FM171400 07011KT P6SM SCT040=



000
FTUS42 KCAE 161700
TAFCUB
TAF
KCUB 161720Z 1618/1718 07011KT P6SM SKC
     FM170800 02007KT P6SM FEW040
     FM171400 07010KT P6SM SCT040=



000
FTUS42 KCAE 161700
TAFCAE
TAF
KCAE 161720Z 1618/1718 07011KT P6SM SKC
     FM170800 02007KT P6SM FEW040
     FM171400 07010KT P6SM SCT040=



000
FTUS42 KCAE 161500 AAB
TAFDNL
TAF AMD
KDNL 161512Z 1615/1712 04014G24KT P6SM SKC
     FM161700 07010KT P6SM SKC
     FM170800 02008KT P6SM FEW040=



000
FTUS42 KCAE 161500 AAB
TAFCUB
TAF AMD
KCUB 161512Z 1615/1712 04012G20KT P6SM SKC
     FM161700 06008KT P6SM SKC
     FM170800 02007KT P6SM FEW040=



000
FTUS42 KCAE 161500 AAB
TAFAGS
TAF AMD
KAGS 161512Z 1615/1712 04014G24KT P6SM SKC
     FM161700 07010KT P6SM SKC
     FM170800 02008KT P6SM FEW040=



000
FTUS42 KCAE 161500 AAB
TAFOGB
TAF AMD
KOGB 161512Z 1615/1712 04015G25KT P6SM SKC
     FM161700 06012KT P6SM SKC
     FM170800 02008KT P6SM FEW035=



000
FTUS42 KCAE 161500 AAA
TAFCAE
TAF AMD
KCAE 161512Z 1615/1712 04014G24KT P6SM SKC
     FM161700 07011KT P6SM SKC
     FM170800 02007KT P6SM FEW040=



000
FTUS42 KCAE 161100 AAA
TAFOGB
TAF AMD
KOGB 161158Z 1612/1712 02010G18KT P6SM SKC
     FM161300 04015G25KT P6SM SKC
     FM161700 06012KT P6SM SKC
     FM170800 02008KT P6SM FEW035=



000
FTUS42 KCAE 161100 AAA
TAFDNL
TAF AMD
KDNL 161158Z 1612/1712 03007KT P6SM SKC WS015/04030KT
     FM161300 04014G24KT P6SM SKC
     FM161700 07010KT P6SM SKC
     FM170800 02008KT P6SM FEW040=



000
FTUS42 KCAE 161100 AAA
TAFCUB
TAF AMD
KCUB 161158Z 1612/1712 VRB05KT P6SM SKC WS015/04030KT
     FM161300 04012G20KT P6SM SKC
     FM161700 06008KT P6SM SKC
     FM170800 02007KT P6SM FEW040=



000
FTUS42 KCAE 161100 AAA
TAFAGS
TAF AMD
KAGS 161158Z 1612/1712 03007KT P6SM SKC WS015/04030KT
     FM161300 04014G24KT P6SM SKC
     FM161700 07010KT P6SM SKC
     FM170800 02008KT P6SM FEW040=



000
FTUS42 KCAE 161100 AAA
TAFCAE
TAF AMD
KCAE 161158Z 1612/1712 02007KT P6SM SKC WS015/04030KT
     FM161300 04014G24KT P6SM SKC
     FM161700 07011KT P6SM SKC
     FM170800 02007KT P6SM FEW040=



000
FTUS42 KCAE 161100
TAFAGS
TAF
KAGS 161120Z 1612/1712 03007KT P6SM SKC WS015/04030KT
     FM161300 04014G24KT P6SM SKC
     FM161700 07010KT P6SM SKC=



000
FTUS42 KCAE 161100
TAFDNL
TAF
KDNL 161120Z 1612/1712 02005KT P6SM SKC WS015/04030KT
     FM161300 04014G24KT P6SM SKC
     FM161700 07010KT P6SM SKC=



000
FTUS42 KCAE 161100
TAFCUB
TAF
KCUB 161120Z 1612/1712 VRB05KT P6SM SKC WS015/04030KT
     FM161300 04012G20KT P6SM SKC
     FM161700 06008KT P6SM SKC=



000
FTUS42 KCAE 161100
TAFOGB
TAF
KOGB 161120Z 1612/1712 02012G20KT P6SM SKC
     FM161300 04015G25KT P6SM SKC
     FM161700 06012KT P6SM SKC=



000
FTUS42 KCAE 161100
TAFCAE
TAF
KCAE 161120Z 1612/1712 02007KT P6SM SKC WS015/04030KT
     FM161300 04014G24KT P6SM SKC
     FM161700 07011KT P6SM SKC=



000
FTUS42 KCAE 161000 AAB
TAFDNL
TAF AMD
KDNL 161033Z 1611/1706 02005KT P6SM SKC WS015/04030KT
     FM161300 04014G24KT P6SM SKC
     FM161700 07010KT P6SM SKC=



000
FTUS42 KCAE 161000 AAB
TAFOGB
TAF AMD
KOGB 161033Z 1611/1706 02012G20KT P6SM SKC
     FM161300 04015G25KT P6SM SKC
     FM161700 06012KT P6SM SKC=



000
FTUS42 KCAE 161000 AAB
TAFCUB
TAF AMD
KCUB 161033Z 1611/1706 VRB05KT P6SM SKC WS015/04030KT
     FM161300 04012G20KT P6SM SKC
     FM161700 06008KT P6SM SKC=



000
FTUS42 KCAE 161000 AAB
TAFAGS
TAF AMD
KAGS 161033Z 1611/1706 03007KT P6SM SKC WS015/04030KT
     FM161300 04014G24KT P6SM SKC
     FM161700 07010KT P6SM SKC=



000
FTUS42 KCAE 161000 AAB
TAFCAE
TAF AMD
KCAE 161033Z 1611/1706 02007KT P6SM SKC WS015/04030KT
     FM161300 04014G24KT P6SM SKC
     FM161700 07011KT P6SM SKC=



000
FTUS42 KCAE 160900 AAA
TAFCUB
TAF AMD
KCUB 160908Z 1609/1706 VRB03KT P6SM SKC
     FM161300 04010G16KT P6SM SKC
     FM161700 06008KT P6SM SKC=



000
FTUS42 KCAE 160900 AAA
TAFAGS
TAF AMD
KAGS 160908Z 1609/1706 01006KT P6SM SKC
     FM161300 04011G17KT P6SM SKC
     FM161700 07010KT P6SM SKC=



000
FTUS42 KCAE 160900 AAA
TAFOGB
TAF AMD
KOGB 160908Z 1609/1706 03010G18KT P6SM SKC
     FM161300 04011G17KT P6SM SKC
     FM161700 06010KT P6SM SKC=



000
FTUS42 KCAE 160900 AAA
TAFCAE
TAF AMD
KCAE 160908Z 1609/1706 03007KT P6SM SKC
     FM161300 04012G18KT P6SM SKC
     FM161700 07011KT P6SM SKC=



000
FTUS42 KCAE 160900 AAA
TAFDNL
TAF AMD
KDNL 160908Z 1609/1706 36006KT P6SM SKC
     FM161300 04011G17KT P6SM SKC
     FM161700 07010KT P6SM SKC=



000
FTUS42 KCAE 160500
TAFCAE
TAF
KCAE 160520Z 1606/1706 35010G15KT P6SM FEW250
     FM160900 01008KT P6SM SKC
     FM161300 04012G18KT P6SM SKC
     FM161700 07011KT P6SM SKC=



000
FTUS42 KCAE 160500
TAFDNL
TAF
KDNL 160520Z 1606/1706 01012G16KT P6SM FEW250
     FM160900 02008KT P6SM SKC
     FM161300 04011G17KT P6SM SKC
     FM161700 07010KT P6SM SKC=



000
FTUS42 KCAE 160500
TAFCUB
TAF
KCUB 160520Z 1606/1706 36009KT P6SM FEW250
     FM161300 04010G16KT P6SM SKC
     FM161700 06008KT P6SM SKC=



000
FTUS42 KCAE 160500
TAFAGS
TAF
KAGS 160520Z 1606/1706 01012G16KT P6SM FEW250
     FM160900 02008KT P6SM SKC
     FM161300 04011G17KT P6SM SKC
     FM161700 07010KT P6SM SKC=



000
FTUS42 KCAE 160500
TAFOGB
TAF
KOGB 160520Z 1606/1706 35010G16KT P6SM FEW250
     FM160900 01008KT P6SM SKC
     FM161300 04011G17KT P6SM SKC
     FM161700 06010KT P6SM SKC=



000
FTUS42 KCAE 160200 AAA
TAFOGB
TAF AMD
KOGB 160235Z 1603/1624 31010G15KT P6SM OVC035
     FM160400 34011KT P6SM FEW250
     FM160800 01010KT P6SM SKC
     FM161300 04011G17KT P6SM SKC
     FM161700 06010KT P6SM SKC=



000
FTUS42 KCAE 160200 AAA
TAFAGS
TAF AMD
KAGS 160235Z 1603/1624 32013G23KT P6SM FEW250
     FM160400 34011KT P6SM FEW250
     FM160800 01010KT P6SM SKC
     FM161300 04011G17KT P6SM SKC
     FM161700 07010KT P6SM SKC=



000
FTUS42 KCAE 160200 AAA
TAFCUB
TAF AMD
KCUB 160235Z 1603/1624 35008G14KT P6SM FEW060
     FM160500 36008KT P6SM FEW250
     FM161300 04010G16KT P6SM SKC
     FM161700 06008KT P6SM SKC=



000
FTUS42 KCAE 160200 AAA
TAFDNL
TAF AMD
KDNL 160235Z 1603/1624 31009G16KT P6SM FEW250
     FM160400 34011KT P6SM FEW250
     FM160800 01010KT P6SM SKC
     FM161300 04011G17KT P6SM SKC
     FM161700 07010KT P6SM SKC=



000
FTUS42 KCAE 160200 AAA
TAFCAE
TAF AMD
KCAE 160235Z 1603/1624 33010G17KT P6SM FEW060
     FM160500 36011KT P6SM FEW250
     FM161300 04012G18KT P6SM SKC
     FM161700 07011KT P6SM SKC=



000
FTUS42 KCAE 152300
TAFAGS
TAF
KAGS 152339Z 1600/1624 30013G23KT P6SM FEW040
     FM160400 34011KT P6SM SKC
     FM160800 01010KT P6SM SKC
     FM161300 04011G17KT P6SM SKC
     FM161700 07010KT P6SM SKC=



000
FTUS42 KCAE 152300
TAFCUB
TAF
KCUB 152339Z 1600/1624 33008G14KT P6SM BKN040
     FM160500 36008KT P6SM SKC
     FM161300 04010G16KT P6SM SKC
     FM161700 06008KT P6SM SKC=



000
FTUS42 KCAE 152300
TAFDNL
TAF
KDNL 152339Z 1600/1624 29013G23KT P6SM FEW040
     FM160400 34011KT P6SM SKC
     FM160800 01010KT P6SM SKC
     FM161300 04011G17KT P6SM SKC
     FM161700 07010KT P6SM SKC=



000
FTUS42 KCAE 152300
TAFOGB
TAF
KOGB 152339Z 1600/1624 31010G17KT P6SM OVC035
     FM160400 34011KT P6SM SKC
     FM160800 01010KT P6SM SKC
     FM161300 04011G17KT P6SM SKC
     FM161700 06010KT P6SM SKC=



000
FTUS42 KCAE 152300
TAFCAE
TAF
KCAE 152339Z 1600/1624 33010G17KT P6SM BKN040
     FM160500 36011KT P6SM SKC
     FM161300 04012G18KT P6SM SKC
     FM161700 07011KT P6SM SKC=



000
FTUS42 KCAE 151900 AAA
TAFDNL
TAF AMD
KDNL 151957Z 1520/1618 28010G20KT P6SM VCSH BKN040
     FM152300 32012KT P6SM SKC
     FM160500 36012KT P6SM SKC
     FM161100 04012KT P6SM SKC=



000
FTUS42 KCAE 151900 AAA
TAFAGS
TAF AMD
KAGS 151956Z 1520/1618 28015G24KT P6SM VCSH BKN040
     FM152300 32012KT P6SM SKC
     FM160500 36012KT P6SM SKC
     FM161100 04012KT P6SM SKC=



000
FTUS42 KCAE 151900 AAA
TAFOGB
TAF AMD
KOGB 151953Z 1520/1618 20013G23KT 6SM -SHRA BR BKN025 OVC035
      TEMPO 1520/1522 25018G30KT 3SM -SHRA BR BKN012
     FM152200 27015G25KT P6SM VCSH BKN035
     FM160100 32012G18KT P6SM SKC
     FM160700 36010KT P6SM SKC
     FM161300 04012KT P6SM SKC=



000
FTUS42 KCAE 151900 AAA
TAFCAE
TAF AMD
KCAE 151916Z 1519/1618 20012G23KT P6SM VCSH BKN015 OVC040
      TEMPO 1519/1521 25020G32KT 2SM -SHRA BKN012 OVC035
     FM152100 27016G30KT P6SM BKN050
     FM160000 32012G18KT P6SM SKC
     FM160600 36010KT P6SM SKC
     FM161200 04012KT P6SM SKC=



000
FTUS42 KCAE 151900 AAA
TAFCUB
TAF AMD
KCUB 151916Z 1519/1618 20012G23KT P6SM VCSH BKN015 OVC040
      TEMPO 1519/1521 25020G32KT 2SM -SHRA BKN012 OVC035
     FM152100 27016G30KT P6SM BKN050
     FM160000 32012G18KT P6SM SKC
     FM160600 36010KT P6SM SKC
     FM161200 04012KT P6SM SKC=



000
FTUS42 KCAE 151700
TAFDNL
TAF
KDNL 151720Z 1518/1618 21015G25KT P6SM -SHRA OVC015
     FM152100 27015G25KT P6SM VCSH BKN035
     FM152300 32012KT P6SM SKC
     FM160500 36012KT P6SM SKC
     FM161100 04012KT P6SM SKC=



000
FTUS42 KCAE 151700
TAFAGS
TAF
KAGS 151720Z 1518/1618 21015G25KT P6SM -SHRA OVC015
     FM152100 27015G25KT P6SM VCSH BKN035
     FM152300 32012KT P6SM SKC
     FM160500 36012KT P6SM SKC
     FM161100 04012KT P6SM SKC=



000
FTUS42 KCAE 151700
TAFCUB
TAF
KCUB 151720Z 1518/1618 24015G25KT P6SM -SHRA OVC035
     FM152100 27016G30KT P6SM BKN050
     FM160000 32012G18KT P6SM SKC
     FM160600 36010KT P6SM SKC
     FM161200 04012KT P6SM SKC=



000
FTUS42 KCAE 151700
TAFCAE
TAF
KCAE 151720Z 1518/1618 24015G25KT P6SM -SHRA OVC035
     FM152100 27016G30KT P6SM BKN050
     FM160000 32012G18KT P6SM SKC
     FM160600 36010KT P6SM SKC
     FM161200 04012KT P6SM SKC=



000
FTUS42 KCAE 151700
TAFOGB
TAF
KOGB 151720Z 1518/1618 22013G23KT P6SM -SHRA OVC015
     FM152200 25015G25KT P6SM VCSH BKN035
     FM160100 32012G18KT P6SM SKC
     FM160700 36010KT P6SM SKC
     FM161300 04012KT P6SM SKC=



000
FTUS42 KCAE 151300 AAA
TAFDNL
TAF AMD
KDNL 151352Z 1514/1612 24015G25KT 5SM SHRA BKN035
      TEMPO 1514/1516 3SM SHRA BKN015
     FM151800 29015G25KT P6SM VCSH BKN035
     FM152300 32012KT P6SM SKC=



000
FTUS42 KCAE 151300 AAA
TAFOGB
TAF AMD
KOGB 151352Z 1514/1612 22013G23KT 5SM SHRA BKN035
      TEMPO 1515/1517 3SM SHRA BKN015
     FM151900 29015G25KT P6SM VCSH BKN035
     FM152300 32012KT P6SM SKC=



000
FTUS42 KCAE 151300 AAA
TAFCAE
TAF AMD
KCAE 151352Z 1514/1612 22015G25KT 5SM SHRA BKN035
      TEMPO 1515/1517 3SM SHRA BKN015
     FM151800 29015G25KT P6SM VCSH BKN035
     FM152300 32012KT P6SM SKC=



000
FTUS42 KCAE 151300 AAA
TAFCUB
TAF AMD
KCUB 151352Z 1514/1612 22012G22KT 5SM SHRA BKN035
      TEMPO 1515/1517 3SM SHRA BKN015
     FM151800 29014G24KT P6SM VCSH BKN035
     FM152300 32010KT P6SM SKC=



000
FTUS42 KCAE 151300 AAA
TAFAGS
TAF AMD
KAGS 151352Z 1514/1612 24015G25KT 5SM SHRA BKN035
      TEMPO 1514/1516 3SM SHRA BKN015
     FM151700 29015G25KT P6SM VCSH BKN035
     FM152300 32012KT P6SM SKC=



    US Dept of Commerce
    National Oceanic and Atmospheric Administration
    National Weather Service
    1325 East West Highway
    Silver Spring, MD 20910
    Page Author: NWS Internet Services Team
Disclaimer
Information Quality
Credits
Glossary
Privacy Policy
Freedom of Information Act (FOIA)
About Us
Career Opportunities